Time;durP1;ratioP1;P1;durP2;ratioP2;P2;SDS_P1;SDS_P2;PMS_P1;PMS_P2;Temp;Humidity;BMP_temperature;BMP_pressure;BME280_temperature;BME280_humidity;BME280_pressure;Samples;Min_cycle;Max_cycle;Signal;HPM_P1;HPM_P2
2023/06/14 00:00:16;;;;;;;9.27;7.80;;;;;;;20.33;58.18;100981.03;4955414;29;20047;-47
2023/06/14 00:02:43;;;;;;;11.50;7.50;;;;;;;20.26;58.55;100980.25;4937070;29;20063;-46
2023/06/14 00:05:12;;;;;;;10.60;7.43;;;;;;;20.20;58.58;100979.03;4954495;29;20130;-45
2023/06/14 00:07:44;;;;;;;14.25;7.88;;;;;;;20.16;58.82;100981.03;4955125;29;20054;-48
2023/06/14 00:10:11;;;;;;;9.25;7.30;;;;;;;20.12;58.47;100988.69;4955197;29;20088;-46
2023/06/14 00:12:42;;;;;;;11.05;8.45;;;;;;;20.05;58.95;100995.91;4954380;28;20493;-45
2023/06/14 00:15:09;;;;;;;12.70;8.20;;;;;;;20.03;58.94;100991.91;4955105;29;20414;-46
2023/06/14 00:17:38;;;;;;;10.45;8.13;;;;;;;19.95;59.30;100988.31;4954981;29;20556;-45
2023/06/14 00:20:06;;;;;;;11.88;7.65;;;;;;;19.89;59.67;100987.09;4954082;29;20066;-45
2023/06/14 00:22:34;;;;;;;9.65;7.90;;;;;;;19.83;60.49;100988.69;4936060;29;20413;-45
2023/06/14 00:25:00;;;;;;;11.23;7.35;;;;;;;19.81;60.84;100985.50;4955055;29;20063;-45
2023/06/14 00:27:40;;;;;;;9.75;8.00;;;;;;;19.79;60.75;100990.72;4954939;29;20105;-45
2023/06/14 00:30:08;;;;;;;10.75;7.45;;;;;;;19.74;61.35;100991.13;4953306;29;20486;-46
2023/06/14 00:32:35;;;;;;;10.18;7.88;;;;;;;19.73;61.23;101000.75;4953793;28;20051;-46
2023/06/14 00:35:02;;;;;;;8.98;7.82;;;;;;;19.72;61.49;100987.94;4954466;29;20118;-45
2023/06/14 00:37:29;;;;;;;13.90;8.68;;;;;;;19.72;61.76;100982.31;4954548;29;20047;-50
2023/06/14 00:39:55;;;;;;;13.25;8.27;;;;;;;19.70;61.79;100995.13;4954048;29;20055;-48
2023/06/14 00:42:25;;;;;;;11.43;8.38;;;;;;;19.66;62.11;100995.16;4953825;28;20047;-47
2023/06/14 00:44:53;;;;;;;11.73;8.48;;;;;;;19.66;62.22;100995.16;4954732;29;20047;-45
2023/06/14 00:47:21;;;;;;;10.48;7.38;;;;;;;19.62;62.54;100988.72;4954591;29;20047;-45
2023/06/14 00:49:50;;;;;;;10.95;8.20;;;;;;;19.60;62.71;100990.31;4954420;29;20079;-48
2023/06/14 00:52:18;;;;;;;12.95;8.65;;;;;;;19.57;62.78;100991.91;4954049;28;20042;-46
2023/06/14 00:54:45;;;;;;;11.30;8.30;;;;;;;19.54;62.68;100998.31;4952521;29;20047;-50
2023/06/14 00:57:13;;;;;;;11.90;8.30;;;;;;;19.50;62.93;100991.09;4949021;29;20414;-45
2023/06/14 00:59:45;;;;;;;9.35;8.45;;;;;;;19.49;63.04;100984.69;4954354;29;20114;-49
2023/06/14 01:02:16;;;;;;;11.05;9.02;;;;;;;19.47;62.77;100992.72;4953349;28;20067;-49
2023/06/14 01:04:48;;;;;;;14.23;8.52;;;;;;;19.41;63.03;100977.44;4954220;29;20083;-47
2023/06/14 01:07:39;;;;;;;9.35;7.85;;;;;;;19.38;63.00;100983.88;4954439;29;20130;-46
2023/06/14 01:10:21;;;;;;;11.48;9.85;;;;;;;19.40;63.10;100992.72;4944553;29;20051;-46
2023/06/14 01:12:52;;;;;;;11.98;8.48;;;;;;;19.37;62.98;100993.47;4947572;28;20080;-46
2023/06/14 01:15:21;;;;;;;11.68;8.32;;;;;;;19.34;62.85;100999.88;4953625;28;20047;-45
2023/06/14 01:17:51;;;;;;;12.43;9.05;;;;;;;19.28;63.15;100995.84;4930867;29;20054;-46
2023/06/14 01:20:20;;;;;;;11.40;9.27;;;;;;;19.25;63.26;100996.66;4947654;29;20043;-45
2023/06/14 01:22:53;;;;;;;11.95;8.90;;;;;;;19.20;63.33;100997.84;4948648;28;20059;-46
2023/06/14 01:25:22;;;;;;;16.58;9.43;;;;;;;19.19;63.26;100992.66;4954109;29;20042;-45
2023/06/14 01:27:58;;;;;;;12.85;9.35;;;;;;;19.17;63.65;101000.63;4954018;29;20054;-49
2023/06/14 01:30:26;;;;;;;13.82;9.60;;;;;;;19.17;63.83;100998.63;4953168;29;20058;-50
2023/06/14 01:32:54;;;;;;;11.60;9.35;;;;;;;19.16;63.54;101005.47;4953311;28;20517;-47
2023/06/14 01:35:22;;;;;;;13.15;8.65;;;;;;;19.14;63.84;101007.84;4952809;28;20047;-46
2023/06/14 01:37:50;;;;;;;11.63;8.90;;;;;;;19.15;63.68;101014.28;4953999;29;20058;-46
2023/06/14 01:40:18;;;;;;;16.67;9.73;;;;;;;19.14;63.94;101007.06;4953727;29;20031;-50
2023/06/14 01:42:49;;;;;;;12.82;9.10;;;;;;;19.08;64.00;101009.47;4952991;28;20047;-47
2023/06/14 01:45:18;;;;;;;12.10;9.67;;;;;;;19.10;63.99;101009.84;4953674;29;20038;-49
2023/06/14 01:47:45;;;;;;;13.30;9.90;;;;;;;19.09;63.88;101011.03;4952789;29;20051;-47
2023/06/14 01:50:13;;;;;;;17.65;9.32;;;;;;;19.05;63.72;101009.44;4953378;28;20114;-45
2023/06/14 01:52:40;;;;;;;11.57;8.45;;;;;;;19.03;63.80;101009.03;4952630;28;20078;-48
2023/06/14 01:55:07;;;;;;;13.95;8.93;;;;;;;19.02;63.84;101007.41;4953351;29;20054;-45
2023/06/14 01:57:34;;;;;;;12.07;8.45;;;;;;;19.02;63.82;101007.41;4953451;29;20035;-45
2023/06/14 02:00:03;;;;;;;11.85;8.75;;;;;;;19.00;64.09;101007.03;4953513;29;20051;-45
2023/06/14 02:02:30;;;;;;;15.48;9.27;;;;;;;18.96;63.95;101011.78;4951431;28;20059;-46
2023/06/14 02:04:57;;;;;;;10.57;8.52;;;;;;;18.93;64.11;101004.19;4941621;29;20374;-46
2023/06/14 02:07:24;;;;;;;12.38;9.30;;;;;;;18.91;64.11;101009.38;4953098;29;20071;-48
2023/06/14 02:09:51;;;;;;;9.82;8.82;;;;;;;18.88;64.32;101001.78;4953282;29;20082;-48
2023/06/14 02:12:18;;;;;;;15.77;9.18;;;;;;;18.82;64.50;101002.13;4952112;28;20051;-45
2023/06/14 02:14:45;;;;;;;14.73;9.65;;;;;;;18.84;64.90;101010.97;4953488;29;20128;-45
2023/06/14 02:17:11;;;;;;;12.65;7.60;;;;;;;18.86;64.82;101004.97;4953024;29;20050;-45
2023/06/14 02:19:38;;;;;;;12.77;7.88;;;;;;;18.86;65.13;101007.75;4952206;29;20050;-47
2023/06/14 02:22:05;;;;;;;11.90;9.63;;;;;;;18.88;64.79;101004.59;4950752;29;20059;-45
2023/06/14 02:24:32;;;;;;;10.02;8.75;;;;;;;18.89;64.74;101011.78;4953253;29;20374;-46
2023/06/14 02:26:59;;;;;;;9.80;7.93;;;;;;;18.89;64.85;101014.59;4952954;29;20078;-46
2023/06/14 02:29:26;;;;;;;11.48;7.40;;;;;;;18.87;64.48;101014.19;4952167;29;20055;-45
2023/06/14 02:31:53;;;;;;;12.75;9.20;;;;;;;18.88;64.71;101010.97;4953032;29;20047;-46
2023/06/14 02:34:21;;;;;;;10.50;7.82;;;;;;;18.89;64.71;101003.38;4952817;29;20130;-45
2023/06/14 02:36:48;;;;;;;10.25;7.38;;;;;;;18.89;64.45;101008.97;4950328;28;20051;-45
2023/06/14 02:39:15;;;;;;;7.00;6.03;;;;;;;18.90;64.19;101013.41;4950442;29;20094;-46
2023/06/14 02:41:42;;;;;;;8.15;6.85;;;;;;;18.92;63.98;101011.81;4952863;29;20510;-47
2023/06/14 02:44:11;;;;;;;15.50;7.68;;;;;;;18.94;63.72;101011.41;4953123;29;20043;-46
2023/06/14 02:46:38;;;;;;;7.25;5.75;;;;;;;18.93;63.40;101004.97;4953991;28;20074;-46
2023/06/14 02:49:05;;;;;;;7.68;6.00;;;;;;;18.94;63.41;101017.00;4956146;29;20421;-46
2023/06/14 02:51:32;;;;;;;8.85;7.03;;;;;;;18.94;63.37;101014.22;4939224;29;20040;-46
2023/06/14 02:53:59;;;;;;;7.75;6.47;;;;;;;18.95;63.16;101013.00;4953008;29;20447;-46
2023/06/14 02:56:26;;;;;;;9.52;6.25;;;;;;;18.94;63.03;101006.59;4953672;29;20051;-46
2023/06/14 02:58:53;;;;;;;6.78;6.07;;;;;;;18.94;62.60;101012.22;4956417;29;20106;-46
2023/06/14 03:01:20;;;;;;;6.90;6.05;;;;;;;18.96;62.67;101020.22;4977724;23;20086;-46
2023/06/14 03:03:47;;;;;;;8.68;6.15;;;;;;;18.97;62.38;101016.22;4955349;28;20101;-46
2023/06/14 03:06:16;;;;;;;8.35;6.78;;;;;;;18.99;62.11;101022.22;4956208;29;20134;-47
2023/06/14 03:08:43;;;;;;;11.25;6.50;;;;;;;19.00;61.78;101019.06;4955853;29;20047;-47
2023/06/14 03:11:10;;;;;;;6.53;5.20;;;;;;;19.02;61.79;101015.84;4955360;29;20061;-46
2023/06/14 03:13:40;;;;;;;6.63;5.68;;;;;;;19.03;61.75;101023.88;4956109;29;20058;-47
2023/06/14 03:16:08;;;;;;;9.15;5.95;;;;;;;19.04;61.64;101036.69;4954512;29;20052;-49
2023/06/14 03:18:36;;;;;;;8.48;6.28;;;;;;;19.01;61.76;101022.66;4954851;29;20051;-47
2023/06/14 03:21:03;;;;;;;9.30;6.30;;;;;;;19.01;62.17;101025.47;4956296;29;20425;-47
2023/06/14 03:23:31;;;;;;;8.70;6.68;;;;;;;19.01;62.15;101031.09;4956220;29;20124;-48
2023/06/14 03:25:58;;;;;;;10.82;6.97;;;;;;;18.94;62.27;101029.03;4943594;29;20051;-47
2023/06/14 03:28:25;;;;;;;16.85;7.68;;;;;;;18.92;62.31;101034.25;4955339;29;20047;-47
2023/06/14 03:30:52;;;;;;;7.60;6.80;;;;;;;18.88;62.62;101032.63;4954924;29;20055;-46
2023/06/14 03:33:20;;;;;;;9.13;7.25;;;;;;;18.84;62.51;101033.41;4955694;29;20066;-48
2023/06/14 03:35:47;;;;;;;10.13;7.90;;;;;;;18.78;62.75;101022.97;4955869;29;20060;-46
2023/06/14 03:38:14;;;;;;;9.52;7.25;;;;;;;18.73;63.05;101026.16;4956096;29;20126;-46
2023/06/14 03:40:41;;;;;;;13.00;7.40;;;;;;;18.72;62.85;101030.94;4955846;29;20062;-48
2023/06/14 03:43:08;;;;;;;9.85;7.43;;;;;;;18.68;63.14;101020.91;4955721;29;20044;-47
2023/06/14 03:45:35;;;;;;;9.10;6.93;;;;;;;18.67;63.14;101028.53;4954892;29;20055;-47
2023/06/14 03:48:02;;;;;;;8.40;6.43;;;;;;;18.64;63.10;101018.09;4954429;29;20054;-46
2023/06/14 03:50:29;;;;;;;8.07;6.68;;;;;;;18.62;63.01;101026.09;4955919;29;20061;-47
2023/06/14 03:52:56;;;;;;;10.07;6.15;;;;;;;18.63;63.01;101027.72;4955813;29;20075;-45
2023/06/14 03:55:25;;;;;;;7.15;5.95;;;;;;;18.62;62.77;101026.09;4955813;29;20508;-46
2023/06/14 03:57:54;;;;;;;9.95;6.03;;;;;;;18.61;62.57;101030.09;4954644;28;20110;-47
2023/06/14 04:00:21;;;;;;;7.75;5.85;;;;;;;18.57;62.76;101040.50;4954181;29;20059;-50
2023/06/14 04:02:48;;;;;;;7.72;6.28;;;;;;;18.54;62.65;101046.06;4954401;29;20386;-46
2023/06/14 04:05:16;;;;;;;7.95;5.95;;;;;;;18.53;62.77;101045.25;4955374;29;20049;-47
2023/06/14 04:07:44;;;;;;;9.68;6.43;;;;;;;18.52;62.77;101045.66;4955202;29;20547;-46
2023/06/14 04:10:13;;;;;;;8.40;6.05;;;;;;;18.50;62.72;101037.66;4955400;29;20053;-45
2023/06/14 04:12:40;;;;;;;11.25;7.05;;;;;;;18.50;62.70;101043.28;4955191;28;20039;-47
2023/06/14 04:15:10;;;;;;;8.85;6.63;;;;;;;18.50;62.67;101050.88;4953741;29;20047;-46
2023/06/14 04:17:47;;;;;;;9.50;5.97;;;;;;;18.49;62.59;101049.25;4955299;29;20638;-46
2023/06/14 04:20:14;;;;;;;8.60;5.68;;;;;;;18.47;62.58;101051.63;4954458;29;20077;-46
2023/06/14 04:22:43;;;;;;;7.40;5.82;;;;;;;18.45;62.36;101051.22;4954873;29;20098;-45
2023/06/14 04:25:10;;;;;;;9.95;6.32;;;;;;;18.44;62.51;101052.41;4955372;29;20070;-48
2023/06/14 04:27:38;;;;;;;6.30;5.47;;;;;;;18.45;62.44;101054.81;4954888;29;20393;-46
2023/06/14 04:30:05;;;;;;;11.30;5.88;;;;;;;18.44;62.33;101061.63;4954809;29;20147;-46
2023/06/14 04:32:33;;;;;;;7.00;5.18;;;;;;;18.43;62.10;101057.19;4953041;28;20467;-47
2023/06/14 04:35:03;;;;;;;8.27;5.32;;;;;;;18.42;62.40;101055.59;4954860;29;20524;-50
2023/06/14 04:37:30;;;;;;;9.70;5.25;;;;;;;18.41;62.18;101065.19;4954341;29;20047;-48
2023/06/14 04:39:57;;;;;;;8.60;5.30;;;;;;;18.41;61.89;101055.97;4954821;29;20054;-46
2023/06/14 04:42:29;;;;;;;5.65;4.90;;;;;;;18.43;62.03;101067.59;4954727;29;20420;-46
2023/06/14 04:44:57;;;;;;;;;;;;;;;18.42;61.99;101055.59;4955036;29;20094;-47
2023/06/14 04:47:29;;;;;;;7.22;5.05;;;;;;;18.41;61.95;101062.38;4937738;29;19922;-46
2023/06/14 04:49:57;;;;;;;8.45;5.68;;;;;;;18.40;62.04;101068.41;4937433;29;20493;-45
2023/06/14 04:52:26;;;;;;;7.03;5.53;;;;;;;18.38;62.32;101063.16;4953407;28;20047;-46
2023/06/14 04:54:54;;;;;;;8.13;5.10;;;;;;;18.37;62.31;101070.00;4953330;28;20094;-46
2023/06/14 04:57:22;;;;;;;9.48;6.43;;;;;;;18.36;61.98;101073.97;4954560;29;20150;-48
2023/06/14 04:59:54;;;;;;;6.93;5.13;;;;;;;18.37;61.97;101070.00;4954385;29;20054;-47
2023/06/14 05:02:25;;;;;;;7.25;5.38;;;;;;;18.37;62.23;101072.78;4953938;29;20461;-46
2023/06/14 05:04:53;;;;;;;7.60;5.07;;;;;;;18.39;62.52;101073.19;4954272;29;20055;-46
2023/06/14 05:07:20;;;;;;;7.93;5.28;;;;;;;18.40;62.50;101074.78;4954103;29;20083;-46
2023/06/14 05:09:46;;;;;;;7.60;5.68;;;;;;;18.40;62.61;101074.00;4953071;28;20062;-46
2023/06/14 05:12:14;;;;;;;8.18;6.22;;;;;;;18.40;62.75;101074.00;4954023;29;20509;-48
2023/06/14 05:14:41;;;;;;;8.45;6.38;;;;;;;18.42;62.87;101066.81;4952826;29;20416;-46
2023/06/14 05:17:09;;;;;;;6.68;5.25;;;;;;;18.41;63.05;101070.81;4953990;29;20043;-46
2023/06/14 05:19:36;;;;;;;8.40;5.32;;;;;;;18.44;62.79;101069.22;4953976;29;20051;-47
2023/06/14 05:22:03;;;;;;;6.93;5.18;;;;;;;18.44;62.82;101069.22;4954215;29;20114;-46
2023/06/14 05:24:30;;;;;;;10.75;6.00;;;;;;;18.43;62.91;101064.78;4951446;29;20039;-48
2023/06/14 05:26:57;;;;;;;10.02;6.20;;;;;;;18.44;63.04;101072.03;4952777;28;20040;-46
2023/06/14 05:29:24;;;;;;;9.85;6.00;;;;;;;18.44;63.22;101072.81;4953855;29;20054;-46
2023/06/14 05:31:54;;;;;;;8.50;6.15;;;;;;;18.48;62.93;101070.09;4953829;29;20060;-46
2023/06/14 05:34:21;;;;;;;6.72;5.57;;;;;;;18.48;63.06;101081.31;4953591;29;20039;-46
2023/06/14 05:36:48;;;;;;;14.10;6.68;;;;;;;18.48;62.94;101084.88;4953505;29;20469;-46
2023/06/14 05:39:15;;;;;;;6.60;4.95;;;;;;;18.53;62.64;101092.16;4953679;29;20053;-46
2023/06/14 05:41:41;;;;;;;9.48;5.68;;;;;;;18.55;62.22;101086.94;4953449;29;20055;-46
2023/06/14 05:44:08;;;;;;;10.13;4.65;;;;;;;18.57;61.92;101096.56;4952960;29;20129;-46
2023/06/14 05:46:35;;;;;;;6.07;4.97;;;;;;;18.58;61.96;101086.97;4952331;29;20050;-46
2023/06/14 05:49:02;;;;;;;8.88;4.63;;;;;;;18.59;61.50;101088.56;4952860;29;20795;-46
2023/06/14 05:51:29;;;;;;;7.65;4.20;;;;;;;18.58;61.33;101095.41;4953248;29;20051;-46
2023/06/14 05:53:56;;;;;;;7.53;4.72;;;;;;;18.56;61.55;101094.97;4950556;29;20094;-46
2023/06/14 05:56:23;;;;;;;11.35;4.78;;;;;;;18.62;61.45;101092.59;4953405;29;21539;-46
2023/06/14 05:58:50;;;;;;;7.05;4.10;;;;;;;18.66;61.30;101099.84;4953294;29;20051;-47
2023/06/14 06:01:18;;;;;;;9.07;4.97;;;;;;;18.68;61.40;101111.47;4951850;29;20055;-46
2023/06/14 06:03:47;;;;;;;5.80;4.03;;;;;;;18.71;61.02;101102.28;4936146;29;20048;-47
2023/06/14 06:06:16;;;;;;;7.13;4.47;;;;;;;18.75;60.87;101113.50;4953367;29;20039;-46
2023/06/14 06:08:43;;;;;;;9.40;4.45;;;;;;;18.81;61.02;101118.38;4953436;29;20106;-46
2023/06/14 06:11:10;;;;;;;7.20;4.72;;;;;;;18.87;60.72;101121.59;4951507;29;20059;-46
2023/06/14 06:13:39;;;;;;;6.45;4.50;;;;;;;18.94;60.42;101120.81;4952994;29;20077;-47
2023/06/14 06:16:06;;;;;;;5.95;3.88;;;;;;;19.00;60.35;101116.47;4953582;29;20438;-47
2023/06/14 06:18:33;;;;;;;8.40;4.40;;;;;;;19.08;59.88;101126.53;4952462;29;20549;-46
2023/06/14 06:21:00;;;;;;;5.93;3.38;;;;;;;19.13;59.21;101112.91;4952587;28;20106;-47
2023/06/14 06:23:26;;;;;;;8.27;4.57;;;;;;;19.18;58.91;101122.97;4953288;29;20149;-48
2023/06/14 06:25:53;;;;;;;9.07;4.95;;;;;;;19.26;59.17;101124.59;4953132;28;20167;-46
2023/06/14 06:28:20;;;;;;;7.28;4.25;;;;;;;19.33;58.55;101117.00;4953204;29;20052;-46
2023/06/14 06:30:47;;;;;;;6.93;3.72;;;;;;;19.37;58.46;101125.44;4952917;29;20054;-48
2023/06/14 06:33:14;;;;;;;7.80;4.43;;;;;;;19.40;57.84;101122.69;4936007;29;20144;-46
2023/06/14 06:35:41;;;;;;;5.10;3.17;;;;;;;19.44;57.34;101128.28;4948572;29;20057;-46
2023/06/14 06:38:09;;;;;;;4.82;3.85;;;;;;;19.49;56.52;101129.91;4952839;29;20047;-46
2023/06/14 06:40:37;;;;;;;5.07;3.55;;;;;;;19.54;56.61;101130.31;4953087;29;20043;-46
2023/06/14 06:43:04;;;;;;;5.47;4.07;;;;;;;19.56;55.71;101136.38;4952946;29;20162;-47
2023/06/14 06:45:30;;;;;;;8.27;4.30;;;;;;;19.60;55.44;101136.38;4952900;29;20047;-47
2023/06/14 06:47:58;;;;;;;4.45;2.83;;;;;;;19.66;54.81;101129.97;4952687;29;20051;-47
2023/06/14 06:50:25;;;;;;;5.55;3.65;;;;;;;19.74;55.22;101137.22;4952972;29;20113;-48
2023/06/14 06:52:53;;;;;;;4.82;3.30;;;;;;;19.83;54.49;101140.44;4945177;28;20548;-48
2023/06/14 06:55:20;;;;;;;4.03;3.15;;;;;;;19.91;53.89;101136.44;4952815;29;20118;-46
2023/06/14 06:57:47;;;;;;;5.05;2.90;;;;;;;20.00;53.66;101141.69;4952535;29;20051;-46
2023/06/14 07:00:14;;;;;;;4.88;3.03;;;;;;;20.07;53.02;101140.91;4935505;29;20040;-46
2023/06/14 07:02:41;;;;;;;5.43;3.88;;;;;;;20.14;52.94;101141.69;4952509;29;20505;-46
2023/06/14 07:05:08;;;;;;;8.25;3.45;;;;;;;20.20;52.66;101147.72;4951859;29;20043;-46
2023/06/14 07:07:35;;;;;;;4.68;3.10;;;;;;;20.29;52.14;101145.34;4952630;29;20493;-47
2023/06/14 07:10:04;;;;;;;5.15;2.88;;;;;;;20.34;52.02;101139.31;4951866;29;20047;-47
2023/06/14 07:12:33;;;;;;;3.95;2.88;;;;;;;20.45;51.46;101154.19;4952671;29;20043;-47
2023/06/14 07:15:00;;;;;;;5.22;3.35;;;;;;;20.54;51.16;101146.94;4934271;29;20453;-46
2023/06/14 07:17:27;;;;;;;7.60;3.88;;;;;;;20.63;51.13;101150.16;4952387;29;20051;-47
2023/06/14 07:19:55;;;;;;;5.30;3.63;;;;;;;20.76;51.07;101146.94;4952620;29;20055;-47
2023/06/14 07:22:22;;;;;;;8.25;3.97;;;;;;;20.89;51.00;101159.38;4952563;29;20049;-47
2023/06/14 07:24:49;;;;;;;7.47;2.90;;;;;;;20.99;50.31;101159.34;4935469;29;20079;-47
2023/06/14 07:27:16;;;;;;;7.70;3.38;;;;;;;21.12;50.34;101165.38;4951480;29;20075;-47
2023/06/14 07:29:46;;;;;;;8.13;3.65;;;;;;;21.28;50.44;101171.34;4952688;29;20137;-47
2023/06/14 07:32:13;;;;;;;7.47;3.08;;;;;;;21.44;50.06;101165.25;4953932;28;20047;-48
2023/06/14 07:34:39;;;;;;;9.18;4.75;;;;;;;21.62;50.20;101171.59;4956181;29;20370;-47
2023/06/14 07:37:06;;;;;;;3.55;2.80;;;;;;;21.81;50.29;101169.09;4955784;29;20047;-47
2023/06/14 07:39:33;;;;;;;4.32;3.10;;;;;;;22.07;49.16;101178.22;4955905;29;20047;-47
2023/06/14 07:42:00;;;;;;;5.95;3.10;;;;;;;22.34;48.40;101180.03;4954259;29;20055;-49
2023/06/14 07:44:31;;;;;;;8.43;3.42;;;;;;;22.64;47.55;101181.41;4951042;29;20036;-44
2023/06/14 07:47:00;;;;;;;5.57;3.10;;;;;;;23.05;47.35;101187.88;4938296;29;20142;-45
2023/06/14 07:49:27;;;;;;;5.60;3.22;;;;;;;23.62;46.03;101188.81;4955719;29;20297;-45
2023/06/14 07:51:54;;;;;;;4.32;3.03;;;;;;;24.18;44.36;101186.44;4954016;29;20043;-45
2023/06/14 07:54:25;;;;;;;2.97;2.72;;;;;;;24.72;43.04;101190.81;4955102;29;20043;-47
2023/06/14 07:56:52;;;;;;;4.47;3.10;;;;;;;25.20;42.33;101195.22;4951823;29;20114;-45
2023/06/14 07:59:19;;;;;;;5.03;3.75;;;;;;;25.71;40.56;101194.59;4955295;29;20122;-45
2023/06/14 08:01:47;;;;;;;7.25;3.78;;;;;;;26.23;39.80;101202.38;4954506;29;20401;-45
2023/06/14 08:04:15;;;;;;;4.25;3.47;;;;;;;26.57;38.39;101199.91;4955363;29;20055;-45
2023/06/14 08:06:45;;;;;;;5.93;3.47;;;;;;;26.85;37.74;101209.75;4936240;29;20047;-44
2023/06/14 08:09:13;;;;;;;3.33;2.88;;;;;;;27.17;36.70;101209.72;4955139;29;20043;-45
2023/06/14 08:11:40;;;;;;;5.60;3.20;;;;;;;27.41;36.05;101207.44;4955411;29;20142;-47
2023/06/14 08:14:07;;;;;;;4.30;2.90;;;;;;;27.61;35.04;101203.22;4955100;29;20055;-44
2023/06/14 08:16:34;;;;;;;3.80;2.92;;;;;;;27.80;34.54;101212.78;4954599;29;20493;-45
2023/06/14 08:19:01;;;;;;;4.47;3.10;;;;;;;28.01;33.38;101212.13;4951902;29;20061;-45
2023/06/14 08:21:28;;;;;;;3.50;2.97;;;;;;;28.13;33.10;101222.78;4955318;29;20047;-45
2023/06/14 08:23:58;;;;;;;3.40;3.10;;;;;;;28.36;32.50;101213.88;4955408;29;20039;-46
2023/06/14 08:26:28;;;;;;;3.95;2.60;;;;;;;28.56;32.18;101219.34;4937094;29;20051;-45
2023/06/14 08:28:56;;;;;;;4.80;2.47;;;;;;;28.69;31.60;101228.72;4938064;29;20110;-44
2023/06/14 08:31:23;;;;;;;4.72;2.60;;;;;;;28.79;31.39;101226.75;4955265;29;20047;-46
2023/06/14 08:33:50;;;;;;;3.78;2.30;;;;;;;28.96;30.25;101226.13;4953933;28;20047;-45
2023/06/14 08:36:17;;;;;;;4.97;2.95;;;;;;;29.15;29.91;101227.09;4954839;29;20059;-47
2023/06/14 08:38:44;;;;;;;5.07;2.85;;;;;;;29.25;29.55;101228.81;4954995;29;20063;-47
2023/06/14 08:41:13;;;;;;;3.33;2.80;;;;;;;29.36;29.49;101237.78;4954952;29;20066;-50
2023/06/14 08:43:40;;;;;;;3.25;2.40;;;;;;;29.43;28.83;101237.53;4936986;29;20057;-47
2023/06/14 08:46:10;;;;;;;4.72;2.90;;;;;;;29.32;27.97;101234.25;4954786;29;20051;-47
2023/06/14 08:48:37;;;;;;;3.08;2.20;;;;;;;29.35;27.61;101241.91;4954998;29;20493;-47
2023/06/14 08:51:06;;;;;;;3.00;2.33;;;;;;;29.42;27.33;101241.63;4950313;28;20082;-47
2023/06/14 08:53:34;;;;;;;3.38;1.83;;;;;;;29.46;27.22;101252.91;4937210;29;20146;-49
2023/06/14 08:56:05;;;;;;;3.08;2.25;;;;;;;29.58;26.73;101252.84;4952868;29;20061;-47
2023/06/14 08:58:33;;;;;;;3.55;2.65;;;;;;;29.71;26.39;101247.06;4954552;29;20049;-48
2023/06/14 09:01:04;;;;;;;3.97;2.28;;;;;;;29.69;26.69;101248.81;4953718;29;20056;-47
2023/06/14 09:03:32;;;;;;;;;;;;;;;29.52;27.80;101251.06;4955465;29;20113;-48
2023/06/14 09:06:00;;;;;;;2.47;2.05;;;;;;;29.76;27.90;101240.00;4953960;29;19970;-49
2023/06/14 09:08:31;;;;;;;2.60;2.10;;;;;;;30.02;27.80;101238.59;4953450;29;20083;-48
2023/06/14 09:10:58;;;;;;;5.68;2.33;;;;;;;29.96;27.64;101246.16;4954221;29;20078;-47
2023/06/14 09:13:26;;;;;;;6.30;2.42;;;;;;;29.90;27.14;101242.31;4953527;29;20046;-47
2023/06/14 09:15:57;;;;;;;4.22;2.47;;;;;;;29.65;27.15;101225.31;4954312;29;20055;-47
2023/06/14 09:18:37;;;;;;;2.40;2.20;;;;;;;29.39;27.48;101236.84;4954117;29;20055;-47
2023/06/14 09:21:07;;;;;;;3.42;1.83;;;;;;;29.41;27.13;101236.41;4953884;29;20050;-48
2023/06/14 09:23:39;;;;;;;3.10;1.90;;;;;;;29.10;27.09;101236.25;4952113;29;20524;-47
2023/06/14 09:26:10;;;;;;;3.28;2.47;;;;;;;29.17;27.21;101240.91;4953150;29;20130;-47
2023/06/14 09:28:48;;;;;;;3.00;2.00;;;;;;;29.41;27.50;101248.63;4953722;29;20055;-47
2023/06/14 09:31:19;;;;;;;4.40;2.58;;;;;;;29.69;26.90;101243.09;4954090;29;20053;-47
2023/06/14 09:33:50;;;;;;;5.20;2.28;;;;;;;29.30;27.13;101251.03;4953612;29;20142;-50
2023/06/14 09:36:21;;;;;;;5.28;2.50;;;;;;;29.12;28.03;101247.19;4954202;29;20051;-48
2023/06/14 09:39:06;;;;;;;6.78;2.42;;;;;;;29.17;28.53;101255.97;4953759;29;20047;-45
2023/06/14 09:41:36;;;;;;;3.50;2.25;;;;;;;29.15;29.01;101252.75;4952817;29;20047;-47
2023/06/14 09:44:06;;;;;;;5.57;2.25;;;;;;;28.81;28.74;101258.44;4953593;29;20047;-45
2023/06/14 09:46:38;;;;;;;5.30;2.90;;;;;;;28.63;29.20;101263.94;4953546;29;20493;-45
2023/06/14 09:49:06;;;;;;;4.95;2.88;;;;;;;28.44;29.86;101253.53;4953704;29;20050;-45
2023/06/14 09:51:34;;;;;;;6.50;2.50;;;;;;;28.49;30.03;101253.75;4947339;29;20051;-46
2023/06/14 09:54:04;;;;;;;4.80;2.17;;;;;;;28.48;29.93;101251.38;4952979;29;20051;-46
2023/06/14 09:56:44;;;;;;;5.22;2.65;;;;;;;28.57;30.24;101248.66;4951488;28;20142;-45
2023/06/14 09:59:13;;;;;;;2.83;1.85;;;;;;;28.44;29.83;101250.69;4949815;29;20090;-45
2023/06/14 10:01:43;;;;;;;7.18;2.17;;;;;;;28.41;30.53;101245.91;4952427;29;20062;-45
2023/06/14 10:04:13;;;;;;;6.15;2.40;;;;;;;28.55;30.28;101248.28;4951882;28;20074;-45
2023/06/14 10:06:45;;;;;;;4.35;2.33;;;;;;;28.57;30.53;101255.13;4953532;28;20062;-46
2023/06/14 10:09:12;;;;;;;4.07;2.47;;;;;;;28.62;30.66;101254.56;4953395;29;20051;-47
2023/06/14 10:11:43;;;;;;;7.00;2.65;;;;;;;28.45;30.66;101253.09;4953236;29;20051;-46
2023/06/14 10:14:13;;;;;;;4.40;3.05;;;;;;;28.27;31.07;101259.34;4953162;28;20047;-45
2023/06/14 10:17:08;;;;;;;7.32;2.67;;;;;;;28.16;31.51;101258.88;4952284;29;20083;-46
2023/06/14 10:19:50;;;;;;;4.68;2.00;;;;;;;28.08;31.46;101251.00;4941388;29;20058;-44
2023/06/14 10:22:24;;;;;;;4.65;2.50;;;;;;;27.78;31.89;101261.63;4953227;29;20141;-47
2023/06/14 10:24:51;;;;;;;5.75;2.45;;;;;;;27.53;32.06;101255.06;4951794;29;20089;-45
2023/06/14 10:27:23;;;;;;;5.15;2.78;;;;;;;27.27;32.40;101254.09;4935196;29;20066;-49
2023/06/14 10:29:53;;;;;;;8.85;2.65;;;;;;;27.06;33.19;101264.00;4953247;29;20055;-46
2023/06/14 10:32:25;;;;;;;4.60;2.55;;;;;;;26.87;33.31;101250.72;4952962;29;20039;-46
2023/06/14 10:34:57;;;;;;;8.43;2.55;;;;;;;26.37;33.60;101251.09;4946486;29;20061;-45
2023/06/14 10:37:26;;;;;;;7.07;2.80;;;;;;;25.99;34.13;101250.72;4941394;29;20054;-48
2023/06/14 10:39:53;;;;;;;4.80;2.33;;;;;;;25.64;34.40;101248.63;4952700;29;20055;-46
2023/06/14 10:42:22;;;;;;;6.80;2.80;;;;;;;25.29;34.75;101246.47;4953051;29;20489;-48
2023/06/14 10:44:55;;;;;;;8.18;2.92;;;;;;;24.96;35.83;101245.47;4952958;29;20057;-47
2023/06/14 10:47:22;;;;;;;4.47;2.72;;;;;;;24.79;36.15;101247.34;4953070;29;20055;-47
2023/06/14 10:49:57;;;;;;;5.30;2.42;;;;;;;24.63;36.64;101250.03;4950196;29;20404;-47
2023/06/14 10:52:27;;;;;;;9.60;2.78;;;;;;;24.51;37.35;101249.84;4949047;28;20043;-51
2023/06/14 10:55:18;;;;;;;5.75;3.10;;;;;;;24.36;37.79;101245.63;4951262;29;20046;-48
2023/06/14 10:57:51;;;;;;;8.45;3.58;;;;;;;24.30;38.13;101247.31;4952732;29;20493;-47
2023/06/14 11:00:22;;;;;;;11.48;4.95;;;;;;;24.12;38.63;101241.91;4952930;29;20062;-47
2023/06/14 11:03:18;;;;;;;6.85;3.05;;;;;;;24.05;38.72;101241.97;4952364;29;20051;-47
2023/06/14 11:05:56;;;;;;;9.68;3.05;;;;;;;23.87;38.75;101241.44;4946931;28;20036;-48
2023/06/14 11:09:00;;;;;;;8.35;3.70;;;;;;;23.81;38.91;101237.47;4955570;29;20051;-48
2023/06/14 11:11:33;;;;;;;8.32;4.55;;;;;;;23.69;39.26;101246.50;4956665;29;20047;-47
2023/06/14 11:14:01;;;;;;;4.07;3.42;;;;;;;23.52;39.79;101249.13;4956390;29;20139;-47
2023/06/14 11:16:28;;;;;;;7.88;3.70;;;;;;;23.36;40.59;101240.41;4956549;29;20047;-47
2023/06/14 11:18:55;;;;;;;10.52;3.97;;;;;;;23.23;40.47;101242.16;4956129;29;20047;-47
2023/06/14 11:21:25;;;;;;;7.90;4.22;;;;;;;23.08;41.13;101240.69;4956325;29;20106;-48
2023/06/14 11:23:54;;;;;;;8.23;3.90;;;;;;;22.91;41.59;101236.81;4953482;29;20050;-47
2023/06/14 11:26:33;;;;;;;13.38;5.13;;;;;;;22.85;41.75;101240.50;4947017;29;20047;-49
2023/06/14 11:29:01;;;;;;;6.75;4.10;;;;;;;22.72;41.92;101243.03;4956079;29;20647;-48
2023/06/14 11:31:29;;;;;;;6.43;4.30;;;;;;;22.73;42.82;101246.66;4956221;29;20138;-47